高雄國際航空站 - 塔台/地面席

METAR RCKH 270030Z 36003KT 320V030 2500 BR FEW012 SCT016 22/19 Q1013 TEMPO 3000 HZ RMK A2992=

站台狀態:Offline
最後更新:2021-02-27 08:30:01